Time;durP1;ratioP1;P1;durP2;ratioP2;P2;SDS_P1;SDS_P2;PMS_P1;PMS_P2;Temp;Humidity;BMP_temperature;BMP_pressure;BME280_temperature;BME280_humidity;BME280_pressure;Samples;Min_cycle;Max_cycle;Signal;HPM_P1;HPM_P2
2022/04/08 00:00:03;;;;;;;;;;;13.50;99.90;13.90;98882.00;;;;347258;28;95904;-90
2022/04/08 00:00:15;;;;;;;;;;;13.50;99.90;13.90;98874.00;;;;345564;28;92230;-90
2022/04/08 00:00:27;;;;;;;;;;;13.50;99.90;13.90;98875.00;;;;345845;28;96638;-90
2022/04/08 00:00:39;;;;;;;;;;;13.50;99.90;13.80;98869.00;;;;345622;28;92061;-90
2022/04/08 00:00:51;;;;;;;;;;;13.50;99.90;13.90;98878.00;;;;345425;28;95947;-90
2022/04/08 00:01:03;;;;;;;;;;;13.50;99.90;13.90;98876.00;;;;344392;28;92073;-91
2022/04/08 00:01:15;;;;;;;;;;;13.50;99.90;13.90;98879.00;;;;347324;28;94603;-90
2022/04/08 00:01:27;;;;;;;;;;;13.50;99.90;13.90;98869.00;;;;342987;28;91898;-90
2022/04/08 00:01:40;;;;;;;;;;;13.50;99.90;13.90;98877.00;;;;343120;28;95499;-90
2022/04/08 00:01:53;;;;;;;;;;;13.50;99.90;13.80;98873.00;;;;346009;28;92200;-90
2022/04/08 00:02:06;;;;;;;;;;;13.50;99.90;13.80;98875.00;;;;344189;28;96087;-90
2022/04/08 00:02:18;;;;;;;;;;;13.50;99.90;13.80;98875.00;;;;345536;28;92162;-89
2022/04/08 00:02:30;;;;;;;;;;;13.50;99.90;13.90;98870.00;;;;345898;28;95693;-90
2022/04/08 00:02:43;;;;;;;;;;;13.50;99.90;13.90;98869.00;;;;347041;28;91924;-90
2022/04/08 00:02:55;;;;;;;;;;;13.50;99.90;13.80;98869.00;;;;347223;28;94584;-90
2022/04/08 00:03:08;;;;;;;;;;;13.50;99.90;13.90;98871.00;;;;345621;28;91992;-91
2022/04/08 00:03:20;;;;;;;;;;;13.50;99.90;13.90;98866.00;;;;348612;27;96079;-90
2022/04/08 00:03:32;;;;;;;;;;;13.50;99.90;13.90;98870.00;;;;345648;28;91968;-90
2022/04/08 00:03:45;;;;;;;;;;;13.50;99.90;13.90;98864.00;;;;347190;28;95932;-90
2022/04/08 00:03:57;;;;;;;;;;;13.50;99.90;13.90;98874.00;;;;348186;27;92044;-90
2022/04/08 00:04:08;;;;;;;;;;;13.50;99.90;13.80;98877.00;;;;346035;28;94525;-90
2022/04/08 00:04:20;;;;;;;;;;;13.50;99.90;13.80;98870.00;;;;348165;27;93006;-91
2022/04/08 00:04:32;;;;;;;;;;;13.50;99.90;13.90;98875.00;;;;345690;28;95637;-90
2022/04/08 00:04:45;;;;;;;;;;;13.50;99.90;13.90;98879.00;;;;348341;27;91979;-90
2022/04/08 00:04:57;;;;;;;;;;;13.50;99.90;13.90;98868.00;;;;346009;28;94780;-90
2022/04/08 00:05:09;;;;;;;;;;;13.50;99.90;13.90;98869.00;;;;347010;28;92057;-90
2022/04/08 00:05:22;;;;;;;;;;;13.50;99.90;13.90;98868.00;;;;347244;28;93320;-90
2022/04/08 00:05:34;;;;;;;;;;;13.50;99.90;13.90;98868.00;;;;346950;28;91197;-90
2022/04/08 00:05:45;;;;;;;;;;;13.50;99.90;13.80;98877.00;;;;347050;27;94763;-91
2022/04/08 00:05:58;;;;;;;;;;;13.50;99.90;13.90;98877.00;;;;348192;27;91969;-90
2022/04/08 00:06:10;;;;;;;;;;;13.50;99.90;13.90;98879.00;;;;348716;27;94470;-90
2022/04/08 00:06:22;;;;;;;;;;;13.50;99.90;13.90;98882.00;;;;346998;28;92962;-90
2022/04/08 00:06:34;;;;;;;;;;;13.50;99.90;13.80;98873.00;;;;345975;28;94027;-90
2022/04/08 00:06:46;;;;;;;;;;;13.50;99.90;13.80;98871.00;;;;345386;28;91219;-90
2022/04/08 00:06:59;;;;;;;;;;;13.50;99.90;13.80;98877.00;;;;347165;28;96102;-90
2022/04/08 00:07:10;;;;;;;;;;;13.50;99.90;13.80;98874.00;;;;347005;28;92003;-90
2022/04/08 00:07:23;;;;;;;;;;;13.40;99.90;13.80;98869.00;;;;347124;28;96036;-90
2022/04/08 00:07:34;;;;;;;;;;;13.40;99.90;13.80;98869.00;;;;346993;28;91959;-90
2022/04/08 00:07:46;;;;;;;;;;;13.50;99.90;13.80;98875.00;;;;345783;28;95644;-90
2022/04/08 00:07:59;;;;;;;;;;;13.40;99.90;13.80;98874.00;;;;347099;28;91930;-90
2022/04/08 00:08:11;;;;;;;;;;;13.40;99.90;13.70;98875.00;;;;347281;28;95736;-90
2022/04/08 00:08:23;;;;;;;;;;;13.50;99.90;13.80;98872.00;;;;345542;28;93029;-90
2022/04/08 00:08:34;;;;;;;;;;;13.40;99.90;13.80;98870.00;;;;347273;28;96574;-90
2022/04/08 00:08:47;;;;;;;;;;;13.40;99.90;13.70;98872.00;;;;346950;28;91929;-90
2022/04/08 00:08:59;;;;;;;;;;;13.40;99.90;13.80;98878.00;;;;347035;28;93855;-90
2022/04/08 00:09:10;;;;;;;;;;;13.40;99.90;13.80;98871.00;;;;348185;27;91075;-90
2022/04/08 00:09:22;;;;;;;;;;;13.40;99.90;13.80;98878.00;;;;346885;28;95215;-90
2022/04/08 00:09:34;;;;;;;;;;;13.40;99.90;13.80;98879.00;;;;346799;28;92102;-91
2022/04/08 00:09:46;;;;;;;;;;;13.40;99.90;13.70;98884.00;;;;344129;28;95960;-90
2022/04/08 00:09:58;;;;;;;;;;;13.40;99.90;13.70;98877.00;;;;346856;28;92112;-90
2022/04/08 00:10:10;;;;;;;;;;;13.40;99.90;13.80;98871.00;;;;348440;27;98415;-90
2022/04/08 00:10:22;;;;;;;;;;;13.40;99.90;13.80;98879.00;;;;346764;28;93073;-90
2022/04/08 00:10:34;;;;;;;;;;;13.40;99.90;13.70;98874.00;;;;345830;28;96879;-90
2022/04/08 00:10:46;;;;;;;;;;;13.40;99.90;13.70;98880.00;;;;347001;28;91973;-90
2022/04/08 00:10:59;;;;;;;;;;;13.40;99.90;13.80;98876.00;;;;345869;28;95862;-91
2022/04/08 00:11:11;;;;;;;;;;;13.40;99.90;13.70;98880.00;;;;345616;28;91220;-90
2022/04/08 00:11:23;;;;;;;;;;;13.40;99.90;13.70;98875.00;;;;345419;28;95836;-90
2022/04/08 00:11:34;;;;;;;;;;;13.40;99.90;13.70;98876.00;;;;345527;28;91966;-90
2022/04/08 00:11:46;;;;;;;;;;;13.40;99.90;13.70;98882.00;;;;345829;28;96277;-90
2022/04/08 00:11:59;;;;;;;;;;;13.40;99.90;13.70;98880.00;;;;347119;28;92003;-90
2022/04/08 00:12:10;;;;;;;;;;;13.40;99.90;13.70;98882.00;;;;347341;28;94768;-91
2022/04/08 00:12:22;;;;;;;;;;;13.40;99.90;13.70;98878.00;;;;347045;28;92931;-91
2022/04/08 00:12:34;;;;;;;;;;;13.40;99.90;13.70;98885.00;;;;346089;28;96116;-90
2022/04/08 00:12:46;;;;;;;;;;;13.40;99.90;13.80;98881.00;;;;348193;27;91121;-91
2022/04/08 00:12:58;;;;;;;;;;;13.40;99.90;13.80;98885.00;;;;348056;27;95235;-89
2022/04/08 00:13:11;;;;;;;;;;;13.40;99.90;13.70;98875.00;;;;344277;28;91979;-90
2022/04/08 00:13:23;;;;;;;;;;;13.40;99.90;13.60;98883.00;;;;345408;28;95109;-90
2022/04/08 00:13:34;;;;;;;;;;;13.40;99.90;13.60;98884.00;;;;345684;28;91975;-90
2022/04/08 00:13:51;;;;;;;;;;;13.30;99.90;13.70;98879.00;;;;345912;28;95007;-91
2022/04/08 00:14:04;;;;;;;;;;;13.40;99.90;13.70;98876.00;;;;345804;28;91190;-90
2022/04/08 00:14:18;;;;;;;;;;;13.40;99.90;13.70;98877.00;;;;344546;28;96053;-90
2022/04/08 00:14:32;;;;;;;;;;;13.40;99.90;13.70;98878.00;;;;344228;28;93399;-91
2022/04/08 00:14:44;;;;;;;;;;;13.40;99.90;13.70;98875.00;;;;345869;28;96957;-90
2022/04/08 00:14:58;;;;;;;;;;;13.40;99.90;13.70;98877.00;;;;345779;28;91269;-90
2022/04/08 00:15:09;;;;;;;;;;;13.40;99.90;13.70;98876.00;;;;347319;28;95640;-90
2022/04/08 00:15:21;;;;;;;;;;;13.40;99.90;13.70;98886.00;;;;344182;28;92024;-90
2022/04/08 00:15:36;;;;;;;;;;;13.40;99.90;13.70;98886.00;;;;345876;28;94873;-90
2022/04/08 00:15:47;;;;;;;;;;;13.40;99.90;13.70;98887.00;;;;348487;27;91975;-90
2022/04/08 00:16:00;;;;;;;;;;;13.40;99.90;13.70;98879.00;;;;348944;27;94732;-91
2022/04/08 00:16:11;;;;;;;;;;;13.40;99.90;13.60;98880.00;;;;347121;28;91891;-90
2022/04/08 00:16:23;;;;;;;;;;;13.40;99.90;13.70;98890.00;;;;346788;28;95657;-90
2022/04/08 00:16:36;;;;;;;;;;;13.30;99.90;13.70;98888.00;;;;345647;28;93088;-90
2022/04/08 00:16:48;;;;;;;;;;;13.30;99.90;13.70;98888.00;;;;345846;28;95455;-90
2022/04/08 00:17:02;;;;;;;;;;;13.40;99.90;13.70;98889.00;;;;345558;28;92103;-91
2022/04/08 00:17:14;;;;;;;;;;;13.40;99.90;13.70;98884.00;;;;347328;28;95422;-90
2022/04/08 00:17:26;;;;;;;;;;;13.40;99.90;13.70;98883.00;;;;346971;28;92033;-90
2022/04/08 00:17:38;;;;;;;;;;;13.40;99.90;13.70;98882.00;;;;345986;28;94966;-90
2022/04/08 00:17:50;;;;;;;;;;;13.30;99.90;13.80;98892.00;;;;348353;27;91115;-91
2022/04/08 00:18:02;;;;;;;;;;;13.40;99.90;13.70;98888.00;;;;347385;27;95545;-90
2022/04/08 00:18:13;;;;;;;;;;;13.40;99.90;13.60;98892.00;;;;345420;28;92047;-90
2022/04/08 00:18:25;;;;;;;;;;;13.40;99.90;13.70;98885.00;;;;347346;27;95689;-91
2022/04/08 00:18:39;;;;;;;;;;;13.30;99.90;13.70;98893.00;;;;345561;28;92966;-91
2022/04/08 00:18:51;;;;;;;;;;;13.30;99.90;13.70;98882.00;;;;347796;27;95768;-91
2022/04/08 00:19:03;;;;;;;;;;;13.40;99.90;13.70;98892.00;;;;346727;28;91853;-91
2022/04/08 00:19:15;;;;;;;;;;;13.40;99.90;13.70;98891.00;;;;344701;28;94080;-91
2022/04/08 00:19:27;;;;;;;;;;;13.40;99.90;13.70;98888.00;;;;345704;28;92021;-92
2022/04/08 00:19:39;;;;;;;;;;;13.30;99.90;13.70;98890.00;;;;348775;27;94877;-90
2022/04/08 00:19:51;;;;;;;;;;;13.30;99.90;13.70;98883.00;;;;347031;28;91888;-91
2022/04/08 00:20:03;;;;;;;;;;;13.30;99.90;13.70;98886.00;;;;347359;28;95582;-91
2022/04/08 00:20:15;;;;;;;;;;;13.30;99.90;13.80;98890.00;;;;345977;28;91204;-91
2022/04/08 00:20:27;;;;;;;;;;;13.30;99.90;13.80;98895.00;;;;347369;28;95720;-91
2022/04/08 00:20:38;;;;;;;;;;;13.40;99.90;13.70;98885.00;;;;348531;27;92969;-92
2022/04/08 00:20:50;;;;;;;;;;;13.40;99.90;13.80;98880.00;;;;347346;28;96931;-91
2022/04/08 00:21:03;;;;;;;;;;;13.30;99.90;13.70;98881.00;;;;347163;28;91238;-92
2022/04/08 00:21:15;;;;;;;;;;;13.40;99.90;13.70;98877.00;;;;345994;28;95611;-92
2022/04/08 00:21:28;;;;;;;;;;;13.40;99.90;13.70;98880.00;;;;347139;28;92011;-91
2022/04/08 00:21:40;;;;;;;;;;;13.40;99.90;13.60;98887.00;;;;345883;28;95870;-91
2022/04/08 00:21:52;;;;;;;;;;;13.40;99.90;13.50;98878.00;;;;346747;28;91402;-91
2022/04/08 00:22:05;;;;;;;;;;;13.30;99.90;13.50;98885.00;;;;347181;28;94964;-90
2022/04/08 00:22:21;;;;;;;;;;;13.30;99.90;13.60;98884.00;;;;344151;28;92012;-91
2022/04/08 00:22:39;;;;;;;;;;;13.30;99.90;13.60;98882.00;;;;345998;28;94703;-91
2022/04/08 00:22:52;;;;;;;;;;;13.30;99.90;13.50;98883.00;;;;345980;28;92978;-91
2022/04/08 00:23:03;;;;;;;;;;;13.30;99.90;13.50;98881.00;;;;345593;28;96789;-91
2022/04/08 00:23:16;;;;;;;;;;;13.30;99.90;13.40;98878.00;;;;347174;28;92003;-92
2022/04/08 00:23:27;;;;;;;;;;;13.30;99.90;13.50;98883.00;;;;344622;28;96100;-91
2022/04/08 00:23:39;;;;;;;;;;;13.30;99.90;13.60;98879.00;;;;345689;28;91234;-90
2022/04/08 00:23:52;;;;;;;;;;;13.30;99.90;13.60;98891.00;;;;345979;28;94740;-90
2022/04/08 00:24:05;;;;;;;;;;;13.30;99.90;13.60;98883.00;;;;344356;28;91211;-91
2022/04/08 00:24:17;;;;;;;;;;;13.30;99.90;13.70;98885.00;;;;347266;28;95644;-90
2022/04/08 00:24:29;;;;;;;;;;;13.30;99.90;13.60;98876.00;;;;344393;28;91939;-92
2022/04/08 00:24:41;;;;;;;;;;;13.30;99.90;13.50;98874.00;;;;344558;28;95668;-91
2022/04/08 00:24:52;;;;;;;;;;;13.30;99.90;13.50;98883.00;;;;349007;27;92219;-92
2022/04/08 00:25:05;;;;;;;;;;;13.30;99.90;13.60;98883.00;;;;346990;28;96158;-91
2022/04/08 00:25:16;;;;;;;;;;;13.30;99.90;13.60;98885.00;;;;346773;28;91959;-91
2022/04/08 00:25:28;;;;;;;;;;;13.30;99.90;13.50;98880.00;;;;347354;28;95010;-91
2022/04/08 00:25:40;;;;;;;;;;;13.30;99.90;13.40;98880.00;;;;348528;27;92133;-92
2022/04/08 00:25:52;;;;;;;;;;;13.30;99.90;13.40;98883.00;;;;344465;28;94457;-91
2022/04/08 00:26:04;;;;;;;;;;;13.30;99.90;13.40;98877.00;;;;348187;27;91346;-91
2022/04/08 00:26:15;;;;;;;;;;;13.20;99.90;13.50;98884.00;;;;345989;28;94776;-91
2022/04/08 00:26:27;;;;;;;;;;;13.20;99.90;13.50;98878.00;;;;344320;28;92030;-91
2022/04/08 00:26:39;;;;;;;;;;;13.20;99.90;13.60;98879.00;;;;347387;28;96215;-91
2022/04/08 00:26:51;;;;;;;;;;;13.20;99.90;13.60;98881.00;;;;346963;28;92943;-91
2022/04/08 00:27:03;;;;;;;;;;;13.20;99.90;13.60;98886.00;;;;347234;28;96700;-91
2022/04/08 00:27:15;;;;;;;;;;;13.20;99.90;13.60;98884.00;;;;344222;28;92013;-91
2022/04/08 00:27:27;;;;;;;;;;;13.20;99.90;13.60;98880.00;;;;348571;27;95155;-91
2022/04/08 00:27:40;;;;;;;;;;;13.20;99.90;13.50;98884.00;;;;344223;28;92170;-91
2022/04/08 00:27:52;;;;;;;;;;;13.20;99.90;13.50;98884.00;;;;346126;28;93323;-91
2022/04/08 00:28:05;;;;;;;;;;;13.20;99.90;13.50;98886.00;;;;345472;28;91970;-92
2022/04/08 00:28:17;;;;;;;;;;;13.20;99.90;13.50;98884.00;;;;347251;27;94824;-91
2022/04/08 00:28:29;;;;;;;;;;;13.20;99.90;13.50;98883.00;;;;348248;27;92014;-92
2022/04/08 00:28:41;;;;;;;;;;;13.20;99.90;13.50;98877.00;;;;347235;28;93880;-91
2022/04/08 00:28:52;;;;;;;;;;;13.20;99.90;13.50;98879.00;;;;347965;27;92119;-91
2022/04/08 00:29:04;;;;;;;;;;;13.20;99.90;13.50;98880.00;;;;345721;28;96790;-91
2022/04/08 00:29:16;;;;;;;;;;;13.20;99.90;13.60;98884.00;;;;345577;28;91908;-91
2022/04/08 00:29:28;;;;;;;;;;;13.20;99.90;13.50;98884.00;;;;345730;28;96190;-91
2022/04/08 00:29:39;;;;;;;;;;;13.20;99.90;13.60;98875.00;;;;346737;28;92184;-91
2022/04/08 00:29:51;;;;;;;;;;;13.20;99.90;13.50;98884.00;;;;347209;28;95831;-91
2022/04/08 00:30:04;;;;;;;;;;;13.20;99.90;13.50;98876.00;;;;346930;28;91928;-91
2022/04/08 00:30:16;;;;;;;;;;;13.20;99.90;13.50;98882.00;;;;345822;28;95740;-91
2022/04/08 00:30:27;;;;;;;;;;;13.20;99.90;13.50;98874.00;;;;345535;28;92106;-91
2022/04/08 00:30:39;;;;;;;;;;;13.20;99.90;13.50;98881.00;;;;345877;28;92459;-91
2022/04/08 00:30:51;;;;;;;;;;;13.20;99.90;13.60;98876.00;;;;343745;28;93207;-91
2022/04/08 00:31:04;;;;;;;;;;;13.20;99.90;13.50;98879.00;;;;346097;27;96656;-91
2022/04/08 00:31:16;;;;;;;;;;;13.20;99.90;13.40;98876.00;;;;347013;28;91978;-91
2022/04/08 00:31:27;;;;;;;;;;;13.20;99.90;13.30;98874.00;;;;347279;28;94531;-91
2022/04/08 00:31:39;;;;;;;;;;;13.10;99.90;13.30;98882.00;;;;345448;28;92081;-92
2022/04/08 00:31:57;;;;;;;;;;;13.10;99.90;13.40;98874.00;;;;349101;27;95561;-91
2022/04/08 00:32:09;;;;;;;;;;;13.10;99.90;13.50;98868.00;;;;346964;28;92084;-91
2022/04/08 00:32:21;;;;;;;;;;;13.10;99.90;13.50;98871.00;;;;347129;28;95209;-91
2022/04/08 00:32:34;;;;;;;;;;;13.20;99.90;13.40;98869.00;;;;347018;28;91205;-91
2022/04/08 00:32:46;;;;;;;;;;;13.10;99.90;13.40;98879.00;;;;347271;28;94719;-91
2022/04/08 00:32:58;;;;;;;;;;;13.10;99.90;13.40;98877.00;;;;348334;27;93022;-91
2022/04/08 00:33:10;;;;;;;;;;;13.10;99.90;13.40;98872.00;;;;348588;27;95733;-91
2022/04/08 00:33:21;;;;;;;;;;;13.10;99.90;13.40;98875.00;;;;346981;28;91846;-92
2022/04/08 00:33:33;;;;;;;;;;;13.10;99.90;13.40;98876.00;;;;347262;28;94785;-91
2022/04/08 00:33:45;;;;;;;;;;;13.10;99.90;13.40;98870.00;;;;345347;28;92018;-91
2022/04/08 00:33:57;;;;;;;;;;;13.10;99.90;13.40;98871.00;;;;349736;27;95068;-91
2022/04/08 00:34:08;;;;;;;;;;;13.10;99.90;13.40;98870.00;;;;346617;28;92231;-91
2022/04/08 00:34:20;;;;;;;;;;;13.10;99.90;13.40;98868.00;;;;347018;28;94089;-91
2022/04/08 00:34:32;;;;;;;;;;;13.10;99.90;13.40;98869.00;;;;345654;28;91112;-91
2022/04/08 00:34:44;;;;;;;;;;;13.10;99.90;13.40;98871.00;;;;347149;28;95701;-91
2022/04/08 00:34:56;;;;;;;;;;;13.10;99.90;13.50;98870.00;;;;345428;28;92161;-92
2022/04/08 00:35:08;;;;;;;;;;;13.10;99.90;13.40;98863.00;;;;346656;27;95593;-91
2022/04/08 00:35:20;;;;;;;;;;;13.10;99.90;13.40;98863.00;;;;346825;28;92060;-91
2022/04/08 00:35:32;;;;;;;;;;;13.10;99.90;13.40;98866.00;;;;347259;28;94970;-92
2022/04/08 00:35:44;;;;;;;;;;;13.10;99.90;13.50;98871.00;;;;348305;27;91973;-90
2022/04/08 00:35:56;;;;;;;;;;;13.10;99.90;13.50;98865.00;;;;348582;27;95816;-91
2022/04/08 00:36:07;;;;;;;;;;;13.10;99.90;13.40;98862.00;;;;345625;28;91154;-91
2022/04/08 00:36:19;;;;;;;;;;;13.10;99.90;13.40;98860.00;;;;349936;27;95742;-91
2022/04/08 00:36:31;;;;;;;;;;;13.10;99.90;13.40;98865.00;;;;348371;27;91964;-90
2022/04/08 00:36:43;;;;;;;;;;;13.10;99.90;13.40;98866.00;;;;347201;28;95909;-91
2022/04/08 00:36:55;;;;;;;;;;;13.10;99.90;13.40;98869.00;;;;346381;27;92331;-91
2022/04/08 00:37:07;;;;;;;;;;;13.10;99.90;13.40;98854.00;;;;347007;27;95524;-91
2022/04/08 00:37:19;;;;;;;;;;;13.10;99.90;13.40;98860.00;;;;345621;28;91961;-91
2022/04/08 00:37:30;;;;;;;;;;;13.10;99.90;13.40;98870.00;;;;348631;27;94321;-91
2022/04/08 00:37:42;;;;;;;;;;;13.10;99.90;13.40;98866.00;;;;345572;28;91990;-91
2022/04/08 00:37:54;;;;;;;;;;;13.10;99.90;13.40;98864.00;;;;348382;27;96086;-91
2022/04/08 00:38:06;;;;;;;;;;;13.10;99.90;13.40;98868.00;;;;345590;28;91124;-91
2022/04/08 00:38:18;;;;;;;;;;;13.10;99.90;13.50;98861.00;;;;344392;28;95710;-91
2022/04/08 00:38:30;;;;;;;;;;;13.10;99.90;13.40;98857.00;;;;345288;28;92063;-91
2022/04/08 00:38:42;;;;;;;;;;;13.10;99.90;13.30;98863.00;;;;347092;28;95515;-91
2022/04/08 00:38:54;;;;;;;;;;;13.10;99.90;13.30;98862.00;;;;344105;28;93006;-91
2022/04/08 00:39:05;;;;;;;;;;;13.10;99.90;13.30;98864.00;;;;345745;28;96786;-91
2022/04/08 00:39:17;;;;;;;;;;;13.00;99.90;13.40;98864.00;;;;346920;28;92098;-91
2022/04/08 00:39:29;;;;;;;;;;;13.00;99.90;13.40;98859.00;;;;344504;28;95892;-91
2022/04/08 00:39:41;;;;;;;;;;;13.10;99.90;13.60;98864.00;;;;346891;28;92107;-91
2022/04/08 00:39:52;;;;;;;;;;;13.00;99.90;13.50;98852.00;;;;348088;27;95882;-91
2022/04/08 00:40:05;;;;;;;;;;;13.10;99.90;13.40;98858.00;;;;346830;28;91982;-91
2022/04/08 00:40:17;;;;;;;;;;;13.00;99.90;13.50;98857.00;;;;347223;28;94886;-91
2022/04/08 00:40:29;;;;;;;;;;;13.00;99.90;13.40;98863.00;;;;345551;28;91904;-91
2022/04/08 00:40:41;;;;;;;;;;;13.10;99.90;13.50;98863.00;;;;348687;27;94064;-91
2022/04/08 00:40:53;;;;;;;;;;;13.10;99.90;13.60;98858.00;;;;346782;28;93035;-91
2022/04/08 00:41:05;;;;;;;;;;;13.10;99.90;13.60;98860.00;;;;345827;28;96766;-91
2022/04/08 00:41:17;;;;;;;;;;;13.10;99.90;13.60;98860.00;;;;347013;28;91193;-91
2022/04/08 00:41:29;;;;;;;;;;;13.10;99.90;13.50;98852.00;;;;347279;28;95861;-92
2022/04/08 00:41:41;;;;;;;;;;;13.10;99.90;13.50;98854.00;;;;348372;27;92154;-91
2022/04/08 00:41:52;;;;;;;;;;;13.10;99.90;13.50;98863.00;;;;346973;28;96266;-92
2022/04/08 00:42:06;;;;;;;;;;;13.10;99.90;13.50;98859.00;;;;345495;28;91981;-91
2022/04/08 00:42:18;;;;;;;;;;;13.10;99.90;13.50;98860.00;;;;344366;28;94978;-91
2022/04/08 00:42:29;;;;;;;;;;;13.10;99.90;13.50;98855.00;;;;344237;28;91935;-91
2022/04/08 00:42:42;;;;;;;;;;;13.10;99.90;13.50;98856.00;;;;345879;28;95585;-91
2022/04/08 00:42:54;;;;;;;;;;;13.10;99.90;13.50;98858.00;;;;344861;28;93198;-92
2022/04/08 00:43:19;;;;;;;;;;;13.10;99.90;13.60;98862.00;;;;344320;28;97348;-91
2022/04/08 00:43:33;;;;;;;;;;;13.10;99.90;13.50;98860.00;;;;345620;28;91168;-91
2022/04/08 00:43:45;;;;;;;;;;;13.10;99.90;13.40;98860.00;;;;345814;28;94761;-92
2022/04/08 00:43:56;;;;;;;;;;;13.10;99.90;13.40;98856.00;;;;348097;27;92124;-92
2022/04/08 00:44:10;;;;;;;;;;;13.10;99.90;13.40;98860.00;;;;345856;28;94431;-91
2022/04/08 00:44:21;;;;;;;;;;;13.10;99.90;13.40;98855.00;;;;348292;27;91255;-91
2022/04/08 00:44:33;;;;;;;;;;;13.10;99.90;13.50;98861.00;;;;348432;27;94202;-91
2022/04/08 00:44:45;;;;;;;;;;;13.10;99.90;13.50;98860.00;;;;346989;28;92057;-92
2022/04/08 00:44:57;;;;;;;;;;;13.10;99.90;13.50;98848.00;;;;348439;27;96291;-91
2022/04/08 00:45:10;;;;;;;;;;;13.10;99.90;13.50;98858.00;;;;348398;27;92173;-92
2022/04/08 00:45:21;;;;;;;;;;;13.10;99.90;13.50;98854.00;;;;344369;28;96593;-91
2022/04/08 00:45:33;;;;;;;;;;;13.10;99.90;13.50;98855.00;;;;348400;27;91103;-91
2022/04/08 00:45:46;;;;;;;;;;;13.10;99.90;13.40;98856.00;;;;347259;28;93428;-91
2022/04/08 00:45:57;;;;;;;;;;;13.10;99.90;13.40;98854.00;;;;346260;28;91241;-91
2022/04/08 00:46:09;;;;;;;;;;;13.10;99.90;13.40;98851.00;;;;348367;27;94990;-91
2022/04/08 00:46:21;;;;;;;;;;;13.10;99.90;13.50;98857.00;;;;346681;28;91929;-91
2022/04/08 00:46:33;;;;;;;;;;;13.10;99.90;13.50;98853.00;;;;345692;28;95927;-91
2022/04/08 00:46:45;;;;;;;;;;;13.10;99.90;13.50;98861.00;;;;346733;28;91978;-92
2022/04/08 00:46:57;;;;;;;;;;;13.10;99.90;13.50;98856.00;;;;344262;28;95995;-92
2022/04/08 00:47:08;;;;;;;;;;;13.10;99.90;13.50;98857.00;;;;344174;28;92050;-91
2022/04/08 00:47:20;;;;;;;;;;;13.10;99.90;13.50;98853.00;;;;344383;28;95712;-91
2022/04/08 00:47:35;;;;;;;;;;;13.10;99.90;13.50;98856.00;;;;348350;27;91247;-91
2022/04/08 00:47:48;;;;;;;;;;;13.10;99.90;13.60;98851.00;;;;345798;28;94949;-91
2022/04/08 00:48:06;;;;;;;;;;;13.10;99.90;13.60;98852.00;;;;345631;28;92043;-91
2022/04/08 00:48:18;;;;;;;;;;;13.10;99.90;13.50;98855.00;;;;347067;28;95587;-92
2022/04/08 00:48:30;;;;;;;;;;;13.10;99.90;13.60;98854.00;;;;344216;28;91972;-91
2022/04/08 00:48:41;;;;;;;;;;;13.10;99.90;13.60;98857.00;;;;344458;28;94762;-92
2022/04/08 00:48:53;;;;;;;;;;;13.10;99.90;13.50;98849.00;;;;348712;27;92249;-91
2022/04/08 00:49:05;;;;;;;;;;;13.10;99.90;13.50;98846.00;;;;349122;27;95684;-91
2022/04/08 00:49:17;;;;;;;;;;;13.10;99.90;13.50;98848.00;;;;348249;27;93071;-92
2022/04/08 00:49:29;;;;;;;;;;;13.10;99.90;13.50;98853.00;;;;345759;28;96751;-91
2022/04/08 00:49:41;;;;;;;;;;;13.10;99.90;13.40;98850.00;;;;348372;27;92126;-91
2022/04/08 00:49:53;;;;;;;;;;;13.10;99.90;13.40;98843.00;;;;346906;28;95670;-92
2022/04/08 00:50:05;;;;;;;;;;;13.10;99.90;13.40;98845.00;;;;345780;28;91978;-91
2022/04/08 00:50:19;;;;;;;;;;;13.10;99.90;13.50;98850.00;;;;344355;28;95782;-91
2022/04/08 00:50:31;;;;;;;;;;;13.10;99.90;13.50;98851.00;;;;345652;28;92062;-91
2022/04/08 00:50:43;;;;;;;;;;;13.10;99.90;13.50;98852.00;;;;345829;28;94666;-91
2022/04/08 00:50:55;;;;;;;;;;;13.10;99.90;13.50;98849.00;;;;345574;28;91977;-91
2022/04/08 00:51:07;;;;;;;;;;;13.10;99.90;13.40;98838.00;;;;344407;28;95599;-91
2022/04/08 00:51:19;;;;;;;;;;;13.10;99.90;13.50;98844.00;;;;348381;27;92143;-91
2022/04/08 00:51:32;;;;;;;;;;;13.10;99.90;13.50;98850.00;;;;347179;28;97144;-91
2022/04/08 00:51:44;;;;;;;;;;;13.10;99.90;13.50;98850.00;;;;346982;28;91982;-91
2022/04/08 00:51:56;;;;;;;;;;;13.10;99.90;13.60;98847.00;;;;345359;28;95174;-91
2022/04/08 00:52:08;;;;;;;;;;;13.10;99.90;13.60;98850.00;;;;346659;28;92104;-91
2022/04/08 00:52:20;;;;;;;;;;;13.10;99.90;13.60;98844.00;;;;347003;28;94697;-92
2022/04/08 00:52:33;;;;;;;;;;;13.10;99.90;13.60;98847.00;;;;345592;28;91957;-91
2022/04/08 00:52:46;;;;;;;;;;;13.20;99.90;13.50;98850.00;;;;347125;28;96100;-92
2022/04/08 00:52:58;;;;;;;;;;;13.10;99.90;13.50;98852.00;;;;345572;28;91203;-91
2022/04/08 00:53:10;;;;;;;;;;;13.10;99.90;13.50;98849.00;;;;345821;28;95537;-91
2022/04/08 00:53:23;;;;;;;;;;;13.10;99.90;13.50;98844.00;;;;348156;27;93007;-91
2022/04/08 00:53:37;;;;;;;;;;;13.10;99.90;13.50;98846.00;;;;344365;28;97193;-91
2022/04/08 00:53:49;;;;;;;;;;;13.10;99.90;13.60;98842.00;;;;345546;28;91181;-92
2022/04/08 00:54:01;;;;;;;;;;;13.10;99.90;13.60;98846.00;;;;347192;28;96347;-91
2022/04/08 00:54:13;;;;;;;;;;;13.10;99.90;13.50;98849.00;;;;345635;28;91914;-91
2022/04/08 00:54:25;;;;;;;;;;;13.10;99.90;13.60;98846.00;;;;344367;28;95778;-91
2022/04/08 00:54:37;;;;;;;;;;;13.10;99.90;13.70;98845.00;;;;345675;28;91969;-91
2022/04/08 00:54:49;;;;;;;;;;;13.10;99.90;13.70;98847.00;;;;348534;27;93020;-91
2022/04/08 00:55:04;;;;;;;;;;;13.10;99.90;13.70;98850.00;;;;346802;27;91250;-91
2022/04/08 00:55:16;;;;;;;;;;;13.20;99.90;13.60;98837.00;;;;344449;28;95627;-92
2022/04/08 00:55:28;;;;;;;;;;;13.20;99.90;13.60;98844.00;;;;344166;28;91999;-91
2022/04/08 00:55:40;;;;;;;;;;;13.20;99.90;13.60;98852.00;;;;344349;28;96897;-92
2022/04/08 00:55:51;;;;;;;;;;;13.20;99.90;13.60;98844.00;;;;345532;28;92004;-91
2022/04/08 00:56:03;;;;;;;;;;;13.20;99.90;13.50;98856.00;;;;345852;28;94248;-91
2022/04/08 00:56:15;;;;;;;;;;;13.20;99.90;13.50;98849.00;;;;344147;28;91978;-92
2022/04/08 00:56:28;;;;;;;;;;;13.20;99.90;13.60;98849.00;;;;345797;28;94887;-92
2022/04/08 00:56:40;;;;;;;;;;;13.20;99.90;13.70;98852.00;;;;347021;28;91936;-91
2022/04/08 00:56:52;;;;;;;;;;;13.20;99.90;13.60;98850.00;;;;347202;28;94726;-91
2022/04/08 00:57:04;;;;;;;;;;;13.20;99.90;13.60;98856.00;;;;349541;27;91103;-92
2022/04/08 00:57:16;;;;;;;;;;;13.20;99.90;13.60;98846.00;;;;345643;28;95301;-91
2022/04/08 00:57:28;;;;;;;;;;;13.20;99.90;13.60;98853.00;;;;345485;28;92131;-91
2022/04/08 00:57:41;;;;;;;;;;;13.20;99.90;13.60;98842.00;;;;348550;27;96843;-92
2022/04/08 00:57:52;;;;;;;;;;;13.10;99.90;13.50;98845.00;;;;348147;27;92146;-91
2022/04/08 00:58:04;;;;;;;;;;;13.10;99.90;13.60;98849.00;;;;348522;27;92425;-92
2022/04/08 00:58:16;;;;;;;;;;;13.10;99.90;13.60;98839.00;;;;345380;28;92146;-91
2022/04/08 00:58:28;;;;;;;;;;;13.10;99.90;13.60;98844.00;;;;347166;28;95652;-91
2022/04/08 00:58:40;;;;;;;;;;;13.10;99.90;13.60;98846.00;;;;348448;27;91896;-91
2022/04/08 00:58:51;;;;;;;;;;;13.10;99.90;13.60;98845.00;;;;345846;28;95709;-91
2022/04/08 00:59:03;;;;;;;;;;;13.10;99.90;13.60;98853.00;;;;348233;27;91957;-91
2022/04/08 00:59:15;;;;;;;;;;;13.20;99.90;13.70;98846.00;;;;347203;28;95868;-92
2022/04/08 00:59:27;;;;;;;;;;;13.10;99.90;13.60;98845.00;;;;348262;27;93055;-91
2022/04/08 00:59:39;;;;;;;;;;;13.20;99.90;13.60;98841.00;;;;345537;28;96913;-91
2022/04/08 00:59:51;;;;;;;;;;;13.20;99.90;13.60;98841.00;;;;344163;28;91214;-92
2022/04/08 01:00:09;;;;;;;;;;;13.10;99.90;13.60;98851.00;;;;348625;27;95548;-92
2022/04/08 01:00:22;;;;;;;;;;;13.20;99.90;13.50;98850.00;;;;346861;27;91513;-91
2022/04/08 01:00:36;;;;;;;;;;;13.10;99.90;13.50;98848.00;;;;344459;28;95552;-90